sensor_id;sensor_type;location;lat;lon;timestamp;pressure;altitude;pressure_sealevel;temperature;humidity
4410;BME280;2218;51.408;7.208;2023-01-29T00:01:57;101069.97;;;17.55;29.89
4410;BME280;2218;51.408;7.208;2023-01-29T00:04:26;101065.63;;;17.54;29.86
4410;BME280;2218;51.408;7.208;2023-01-29T00:06:53;101062.22;;;17.52;29.86
4410;BME280;2218;51.408;7.208;2023-01-29T00:09:20;101064.00;;;17.51;30.03
4410;BME280;2218;51.408;7.208;2023-01-29T00:11:47;101062.28;;;17.50;29.83
4410;BME280;2218;51.408;7.208;2023-01-29T00:14:14;101051.81;;;17.49;29.80
4410;BME280;2218;51.408;7.208;2023-01-29T00:16:41;101060.63;;;17.48;29.89
4410;BME280;2218;51.408;7.208;2023-01-29T00:19:08;101059.69;;;17.49;29.80
4410;BME280;2218;51.408;7.208;2023-01-29T00:21:36;101057.22;;;17.46;29.94
4410;BME280;2218;51.408;7.208;2023-01-29T00:24:04;101055.47;;;17.45;30.06
4410;BME280;2218;51.408;7.208;2023-01-29T00:26:31;101052.00;;;17.44;30.12
4410;BME280;2218;51.408;7.208;2023-01-29T00:28:58;101048.50;;;17.44;29.98
4410;BME280;2218;51.408;7.208;2023-01-29T00:31:27;101052.06;;;17.43;30.01
4410;BME280;2218;51.408;7.208;2023-01-29T00:33:54;101051.22;;;17.42;29.84
4410;BME280;2218;51.408;7.208;2023-01-29T00:36:22;101055.63;;;17.42;30.11
4410;BME280;2218;51.408;7.208;2023-01-29T00:38:56;101043.41;;;17.41;29.75
4410;BME280;2218;51.408;7.208;2023-01-29T00:41:27;101040.81;;;17.39;29.92
4410;BME280;2218;51.408;7.208;2023-01-29T00:44:12;101052.25;;;17.38;30.02
4410;BME280;2218;51.408;7.208;2023-01-29T00:46:57;101052.31;;;17.37;29.98
4410;BME280;2218;51.408;7.208;2023-01-29T00:49:24;101049.72;;;17.35;30.05
4410;BME280;2218;51.408;7.208;2023-01-29T00:51:51;101041.84;;;17.35;30.15
4410;BME280;2218;51.408;7.208;2023-01-29T00:54:34;101043.63;;;17.35;29.83
4410;BME280;2218;51.408;7.208;2023-01-29T00:57:01;101041.00;;;17.35;30.39
4410;BME280;2218;51.408;7.208;2023-01-29T00:59:29;101041.00;;;17.35;29.95
4410;BME280;2218;51.408;7.208;2023-01-29T01:01:56;101045.47;;;17.33;29.90
4410;BME280;2218;51.408;7.208;2023-01-29T01:04:40;101051.59;;;17.33;29.97
4410;BME280;2218;51.408;7.208;2023-01-29T01:07:07;101046.44;;;17.30;29.99
4410;BME280;2218;51.408;7.208;2023-01-29T01:09:36;101052.56;;;17.30;29.99
4410;BME280;2218;51.408;7.208;2023-01-29T01:12:35;101046.50;;;17.28;29.95
4410;BME280;2218;51.408;7.208;2023-01-29T01:15:02;101063.19;;;17.27;30.08
4410;BME280;2218;51.408;7.208;2023-01-29T01:17:30;101059.66;;;17.28;29.96
4410;BME280;2218;51.408;7.208;2023-01-29T01:19:57;101057.09;;;17.27;30.35
4410;BME280;2218;51.408;7.208;2023-01-29T01:22:24;101058.88;;;17.26;30.09
4410;BME280;2218;51.408;7.208;2023-01-29T01:24:52;101057.13;;;17.25;29.79
4410;BME280;2218;51.408;7.208;2023-01-29T01:27:19;101059.75;;;17.25;30.21
4410;BME280;2218;51.408;7.208;2023-01-29T01:29:46;101041.44;;;17.24;29.93
4410;BME280;2218;51.408;7.208;2023-01-29T01:32:13;101035.25;;;17.25;29.77
4410;BME280;2218;51.408;7.208;2023-01-29T01:34:42;101027.34;;;17.26;30.13
4410;BME280;2218;51.408;7.208;2023-01-29T01:37:12;101003.53;;;17.29;29.91
4410;BME280;2218;51.408;7.208;2023-01-29T01:39:39;101007.84;;;17.32;29.77
4410;BME280;2218;51.408;7.208;2023-01-29T01:42:11;100997.25;;;17.34;29.71
4410;BME280;2218;51.408;7.208;2023-01-29T01:44:58;101012.06;;;17.36;29.62
4410;BME280;2218;51.408;7.208;2023-01-29T01:47:37;101009.28;;;17.39;29.40
4410;BME280;2218;51.408;7.208;2023-01-29T01:50:13;100998.66;;;17.42;29.61
4410;BME280;2218;51.408;7.208;2023-01-29T01:52:46;101005.63;;;17.43;29.66
4410;BME280;2218;51.408;7.208;2023-01-29T01:55:19;101016.00;;;17.46;29.52
4410;BME280;2218;51.408;7.208;2023-01-29T01:57:54;101012.47;;;17.47;29.48
4410;BME280;2218;51.408;7.208;2023-01-29T02:00:25;101021.97;;;17.50;29.66
4410;BME280;2218;51.408;7.208;2023-01-29T02:02:53;101019.31;;;17.51;29.47
4410;BME280;2218;51.408;7.208;2023-01-29T02:05:39;101019.25;;;17.53;29.52
4410;BME280;2218;51.408;7.208;2023-01-29T02:08:31;101019.25;;;17.53;29.61
4410;BME280;2218;51.408;7.208;2023-01-29T02:11:19;101012.13;;;17.55;29.17
4410;BME280;2218;51.408;7.208;2023-01-29T02:13:47;101016.50;;;17.56;29.46
4410;BME280;2218;51.408;7.208;2023-01-29T02:16:24;101021.75;;;17.56;29.53
4410;BME280;2218;51.408;7.208;2023-01-29T02:18:52;101021.59;;;17.59;28.92
4410;BME280;2218;51.408;7.208;2023-01-29T02:21:49;101027.72;;;17.60;29.38
4410;BME280;2218;51.408;7.208;2023-01-29T02:24:58;101029.44;;;17.61;29.02
4410;BME280;2218;51.408;7.208;2023-01-29T02:28:01;101024.19;;;17.61;29.35
4410;BME280;2218;51.408;7.208;2023-01-29T02:30:36;101026.75;;;17.62;29.19
4410;BME280;2218;51.408;7.208;2023-01-29T02:33:13;101027.59;;;17.63;29.08
4410;BME280;2218;51.408;7.208;2023-01-29T02:35:55;101031.09;;;17.63;29.39
4410;BME280;2218;51.408;7.208;2023-01-29T02:38:34;101031.94;;;17.64;28.91
4410;BME280;2218;51.408;7.208;2023-01-29T02:41:12;101030.16;;;17.64;29.29
4410;BME280;2218;51.408;7.208;2023-01-29T02:43:46;101028.34;;;17.66;29.21
4410;BME280;2218;51.408;7.208;2023-01-29T02:46:22;101038.84;;;17.66;29.34
4410;BME280;2218;51.408;7.208;2023-01-29T02:49:05;101045.81;;;17.67;28.93
4410;BME280;2218;51.408;7.208;2023-01-29T02:51:39;101042.25;;;17.68;28.97
4410;BME280;2218;51.408;7.208;2023-01-29T02:54:18;101033.53;;;17.68;29.36
4410;BME280;2218;51.408;7.208;2023-01-29T02:56:54;101027.34;;;17.69;29.02
4410;BME280;2218;51.408;7.208;2023-01-29T02:59:31;101028.19;;;17.69;29.00
4410;BME280;2218;51.408;7.208;2023-01-29T03:02:05;101028.19;;;17.69;29.08
4410;BME280;2218;51.408;7.208;2023-01-29T03:04:42;101029.94;;;17.70;29.11
4410;BME280;2218;51.408;7.208;2023-01-29T03:07:17;101025.53;;;17.71;28.93
4410;BME280;2218;51.408;7.208;2023-01-29T03:10:16;101032.47;;;17.72;29.18
4410;BME280;2218;51.408;7.208;2023-01-29T03:12:51;101041.28;;;17.71;29.19
4410;BME280;2218;51.408;7.208;2023-01-29T03:15:25;101031.63;;;17.71;29.08
4410;BME280;2218;51.408;7.208;2023-01-29T03:18:17;101033.34;;;17.72;29.25
4410;BME280;2218;51.408;7.208;2023-01-29T03:20:52;101028.06;;;17.72;29.15
4410;BME280;2218;51.408;7.208;2023-01-29T03:23:26;101021.91;;;17.73;29.33
4410;BME280;2218;51.408;7.208;2023-01-29T03:26:15;101024.56;;;17.73;29.14
4410;BME280;2218;51.408;7.208;2023-01-29T03:29:04;101018.44;;;17.73;29.14
4410;BME280;2218;51.408;7.208;2023-01-29T03:31:54;101037.69;;;17.73;29.08
4410;BME280;2218;51.408;7.208;2023-01-29T03:34:39;101033.25;;;17.75;29.22
4410;BME280;2218;51.408;7.208;2023-01-29T03:37:16;101035.88;;;17.75;29.06
4410;BME280;2218;51.408;7.208;2023-01-29T03:39:45;101039.34;;;17.76;28.78
4410;BME280;2218;51.408;7.208;2023-01-29T03:42:22;101034.09;;;17.76;28.79
4410;BME280;2218;51.408;7.208;2023-01-29T03:44:58;101024.44;;;17.76;29.30
4410;BME280;2218;51.408;7.208;2023-01-29T03:47:42;101019.16;;;17.76;29.03
4410;BME280;2218;51.408;7.208;2023-01-29T03:50:28;101013.91;;;17.76;29.08
4410;BME280;2218;51.408;7.208;2023-01-29T03:53:07;101006.03;;;17.76;29.04
4410;BME280;2218;51.408;7.208;2023-01-29T03:55:42;101004.25;;;17.77;28.90
4410;BME280;2218;51.408;7.208;2023-01-29T03:58:22;101011.22;;;17.78;29.03
4410;BME280;2218;51.408;7.208;2023-01-29T04:00:56;101010.34;;;17.77;29.04
4410;BME280;2218;51.408;7.208;2023-01-29T04:03:33;101009.44;;;17.78;28.95
4410;BME280;2218;51.408;7.208;2023-01-29T04:06:08;101002.41;;;17.79;29.31
4410;BME280;2218;51.408;7.208;2023-01-29T04:08:56;101002.41;;;17.79;28.94
4410;BME280;2218;51.408;7.208;2023-01-29T04:11:28;101003.25;;;17.79;29.01
4410;BME280;2218;51.408;7.208;2023-01-29T04:13:57;100997.09;;;17.80;28.67
4410;BME280;2218;51.408;7.208;2023-01-29T04:16:30;101004.09;;;17.80;28.97
4410;BME280;2218;51.408;7.208;2023-01-29T04:19:16;101004.97;;;17.80;28.92
4410;BME280;2218;51.408;7.208;2023-01-29T04:21:46;100991.75;;;17.82;29.05
4410;BME280;2218;51.408;7.208;2023-01-29T04:24:15;100989.19;;;17.80;28.90
4410;BME280;2218;51.408;7.208;2023-01-29T04:26:56;100989.19;;;17.80;28.93
4410;BME280;2218;51.408;7.208;2023-01-29T04:29:53;100981.31;;;17.80;29.00
4410;BME280;2218;51.408;7.208;2023-01-29T04:32:31;100984.78;;;17.81;29.10
4410;BME280;2218;51.408;7.208;2023-01-29T04:35:19;100975.13;;;17.81;29.00
4410;BME280;2218;51.408;7.208;2023-01-29T04:38:03;100977.75;;;17.81;28.89
4410;BME280;2218;51.408;7.208;2023-01-29T04:40:45;100979.47;;;17.82;28.96
4410;BME280;2218;51.408;7.208;2023-01-29T04:43:24;100986.50;;;17.82;29.22
4410;BME280;2218;51.408;7.208;2023-01-29T04:46:09;100976.84;;;17.82;28.98
4410;BME280;2218;51.408;7.208;2023-01-29T04:48:57;100969.78;;;17.83;29.01
4410;BME280;2218;51.408;7.208;2023-01-29T04:51:40;100968.00;;;17.83;28.93
4410;BME280;2218;51.408;7.208;2023-01-29T04:54:17;100969.72;;;17.85;28.90
4410;BME280;2218;51.408;7.208;2023-01-29T04:56:55;100958.34;;;17.84;28.92
4410;BME280;2218;51.408;7.208;2023-01-29T04:59:29;100959.19;;;17.85;28.92
4410;BME280;2218;51.408;7.208;2023-01-29T05:02:00;100969.72;;;17.85;28.92
4410;BME280;2218;51.408;7.208;2023-01-29T05:04:30;100968.81;;;17.86;28.87
4410;BME280;2218;51.408;7.208;2023-01-29T05:07:03;100968.88;;;17.84;28.86
4410;BME280;2218;51.408;7.208;2023-01-29T05:09:35;100969.72;;;17.85;28.88
4410;BME280;2218;51.408;7.208;2023-01-29T05:12:06;100954.78;;;17.85;28.81
4410;BME280;2218;51.408;7.208;2023-01-29T05:14:37;100944.28;;;17.85;28.83
4410;BME280;2218;51.408;7.208;2023-01-29T05:17:14;100934.63;;;17.86;28.87
4410;BME280;2218;51.408;7.208;2023-01-29T05:19:42;100937.25;;;17.86;28.88
4410;BME280;2218;51.408;7.208;2023-01-29T05:22:14;100929.38;;;17.86;28.75
4410;BME280;2218;51.408;7.208;2023-01-29T05:24:42;100929.38;;;17.86;29.11
4410;BME280;2218;51.408;7.208;2023-01-29T05:27:16;100923.19;;;17.87;28.73
4410;BME280;2218;51.408;7.208;2023-01-29T05:30:01;100917.91;;;17.87;28.86
4410;BME280;2218;51.408;7.208;2023-01-29T05:32:28;100923.19;;;17.87;28.86
4410;BME280;2218;51.408;7.208;2023-01-29T05:34:55;100920.56;;;17.87;29.13
4410;BME280;2218;51.408;7.208;2023-01-29T05:37:23;100923.19;;;17.87;28.96
4410;BME280;2218;51.408;7.208;2023-01-29T05:39:50;100914.44;;;17.86;28.98
4410;BME280;2218;51.408;7.208;2023-01-29T05:42:17;100914.38;;;17.88;28.65
4410;BME280;2218;51.408;7.208;2023-01-29T05:44:43;100924.88;;;17.88;28.71
4410;BME280;2218;51.408;7.208;2023-01-29T05:47:10;100922.25;;;17.88;28.79
4410;BME280;2218;51.408;7.208;2023-01-29T05:49:37;100927.50;;;17.88;28.74
4410;BME280;2218;51.408;7.208;2023-01-29T05:52:04;100924.03;;;17.87;28.65
4410;BME280;2218;51.408;7.208;2023-01-29T05:54:32;100925.81;;;17.87;28.89
4410;BME280;2218;51.408;7.208;2023-01-29T05:56:59;100930.16;;;17.88;28.86
4410;BME280;2218;51.408;7.208;2023-01-29T05:59:26;100926.66;;;17.87;28.98
4410;BME280;2218;51.408;7.208;2023-01-29T06:01:55;100945.00;;;17.89;28.52
4410;BME280;2218;51.408;7.208;2023-01-29T06:04:23;100947.63;;;17.89;28.86
4410;BME280;2218;51.408;7.208;2023-01-29T06:06:50;100943.28;;;17.88;29.03
4410;BME280;2218;51.408;7.208;2023-01-29T06:09:16;100945.00;;;17.89;28.72
4410;BME280;2218;51.408;7.208;2023-01-29T06:11:45;100950.25;;;17.89;28.81
4410;BME280;2218;51.408;7.208;2023-01-29T06:14:12;100956.38;;;17.89;29.02
4410;BME280;2218;51.408;7.208;2023-01-29T06:16:39;100961.63;;;17.89;28.86
4410;BME280;2218;51.408;7.208;2023-01-29T06:19:05;100970.38;;;17.90;28.80
4410;BME280;2218;51.408;7.208;2023-01-29T06:21:32;100964.25;;;17.89;28.64
4410;BME280;2218;51.408;7.208;2023-01-29T06:23:59;100965.09;;;17.90;28.71
4410;BME280;2218;51.408;7.208;2023-01-29T06:26:26;100980.88;;;17.90;28.79
4410;BME280;2218;51.408;7.208;2023-01-29T06:28:54;100978.25;;;17.90;28.71
4410;BME280;2218;51.408;7.208;2023-01-29T06:31:21;100968.63;;;17.90;28.81
4410;BME280;2218;51.408;7.208;2023-01-29T06:33:48;100976.50;;;17.90;28.72
4410;BME280;2218;51.408;7.208;2023-01-29T06:36:15;100979.16;;;17.90;29.00
4410;BME280;2218;51.408;7.208;2023-01-29T06:38:42;100967.75;;;17.90;29.06
4410;BME280;2218;51.408;7.208;2023-01-29T06:41:10;100961.59;;;17.91;29.10
4410;BME280;2218;51.408;7.208;2023-01-29T06:43:38;100951.97;;;17.90;29.03
4410;BME280;2218;51.408;7.208;2023-01-29T06:46:07;100962.47;;;17.90;29.09
4410;BME280;2218;51.408;7.208;2023-01-29T06:48:34;100959.84;;;17.90;28.61
4410;BME280;2218;51.408;7.208;2023-01-29T06:51:04;100963.38;;;17.90;28.82
4410;BME280;2218;51.408;7.208;2023-01-29T06:53:33;100971.25;;;17.90;28.78
4410;BME280;2218;51.408;7.208;2023-01-29T06:56:00;100969.47;;;17.91;28.81
4410;BME280;2218;51.408;7.208;2023-01-29T06:58:27;100972.09;;;17.91;28.90
4410;BME280;2218;51.408;7.208;2023-01-29T07:01:01;100969.47;;;17.91;28.60
4410;BME280;2218;51.408;7.208;2023-01-29T07:03:30;100966.84;;;17.91;28.78
4410;BME280;2218;51.408;7.208;2023-01-29T07:05:57;100969.47;;;17.91;28.97
4410;BME280;2218;51.408;7.208;2023-01-29T07:08:23;100977.38;;;17.91;28.89
4410;BME280;2218;51.408;7.208;2023-01-29T07:10:50;100981.69;;;17.92;28.86
4410;BME280;2218;51.408;7.208;2023-01-29T07:13:17;100971.19;;;17.92;28.89
4410;BME280;2218;51.408;7.208;2023-01-29T07:15:44;100963.28;;;17.92;29.05
4410;BME280;2218;51.408;7.208;2023-01-29T07:18:11;100960.66;;;17.92;28.83
4410;BME280;2218;51.408;7.208;2023-01-29T07:20:40;100981.69;;;17.92;28.95
4410;BME280;2218;51.408;7.208;2023-01-29T07:23:11;100986.97;;;17.92;28.94
4410;BME280;2218;51.408;7.208;2023-01-29T07:25:39;100981.69;;;17.92;29.24
4410;BME280;2218;51.408;7.208;2023-01-29T07:28:06;100968.53;;;17.92;28.83
4410;BME280;2218;51.408;7.208;2023-01-29T07:30:34;100956.25;;;17.92;28.82
4410;BME280;2218;51.408;7.208;2023-01-29T07:33:02;100944.88;;;17.92;28.75
4410;BME280;2218;51.408;7.208;2023-01-29T07:35:29;100950.97;;;17.92;28.75
4410;BME280;2218;51.408;7.208;2023-01-29T07:37:57;100951.91;;;17.91;28.60
4410;BME280;2218;51.408;7.208;2023-01-29T07:40:24;100956.25;;;17.92;28.78
4410;BME280;2218;51.408;7.208;2023-01-29T07:42:56;100965.91;;;17.92;28.72
4410;BME280;2218;51.408;7.208;2023-01-29T07:45:23;100949.22;;;17.93;28.96
4410;BME280;2218;51.408;7.208;2023-01-29T07:47:51;100951.84;;;17.93;28.91
4410;BME280;2218;51.408;7.208;2023-01-29T07:50:20;100952.69;;;17.93;28.77
4410;BME280;2218;51.408;7.208;2023-01-29T07:52:46;100945.72;;;17.92;28.93
4410;BME280;2218;51.408;7.208;2023-01-29T07:55:15;100955.41;;;17.92;28.96
4410;BME280;2218;51.408;7.208;2023-01-29T07:57:43;100956.25;;;17.92;28.93
4410;BME280;2218;51.408;7.208;2023-01-29T08:00:11;100947.44;;;17.93;29.13
4410;BME280;2218;51.408;7.208;2023-01-29T09:15:10;100888.19;;;17.64;30.16
4410;BME280;2218;51.408;7.208;2023-01-29T09:17:37;100890.78;;;17.66;30.18
4410;BME280;2218;51.408;7.208;2023-01-29T09:20:06;100886.28;;;17.68;29.78
4410;BME280;2218;51.408;7.208;2023-01-29T09:22:34;100884.50;;;17.68;29.92
4410;BME280;2218;51.408;7.208;2023-01-29T09:25:01;100882.69;;;17.70;29.93
4410;BME280;2218;51.408;7.208;2023-01-29T09:27:28;100882.69;;;17.70;29.72
4410;BME280;2218;51.408;7.208;2023-01-29T09:29:55;100877.34;;;17.72;29.94
4410;BME280;2218;51.408;7.208;2023-01-29T09:32:24;100883.41;;;17.74;30.26
4410;BME280;2218;51.408;7.208;2023-01-29T09:34:51;100877.22;;;17.75;29.71
4410;BME280;2218;51.408;7.208;2023-01-29T09:37:17;100872.78;;;17.77;30.02
4410;BME280;2218;51.408;7.208;2023-01-29T09:39:48;100891.09;;;17.78;29.94
4410;BME280;2218;51.408;7.208;2023-01-29T09:42:20;100885.75;;;17.80;29.48
4410;BME280;2218;51.408;7.208;2023-01-29T09:44:59;100882.16;;;17.82;29.43
4410;BME280;2218;51.408;7.208;2023-01-29T09:47:32;100878.59;;;17.83;29.68
4410;BME280;2218;51.408;7.208;2023-01-29T09:50:05;100872.41;;;17.85;29.98
4410;BME280;2218;51.408;7.208;2023-01-29T09:52:37;100874.16;;;17.86;29.46
4410;BME280;2218;51.408;7.208;2023-01-29T09:55:17;100865.38;;;17.85;29.61
4410;BME280;2218;51.408;7.208;2023-01-29T09:57:51;100865.38;;;17.85;29.55
4410;BME280;2218;51.408;7.208;2023-01-29T10:00:24;100873.22;;;17.87;29.56
4410;BME280;2218;51.408;7.208;2023-01-29T10:03:14;100878.47;;;17.87;29.66
4410;BME280;2218;51.408;7.208;2023-01-29T10:06:18;100880.19;;;17.88;29.82
4410;BME280;2218;51.408;7.208;2023-01-29T10:09:38;100874.91;;;17.88;29.50
4410;BME280;2218;51.408;7.208;2023-01-29T10:12:33;100874.91;;;17.88;29.77
4410;BME280;2218;51.408;7.208;2023-01-29T10:15:21;100872.28;;;17.88;29.56
4410;BME280;2218;51.408;7.208;2023-01-29T10:18:19;100877.47;;;17.89;29.22
4410;BME280;2218;51.408;7.208;2023-01-29T10:21:07;100881.88;;;17.89;29.52
4410;BME280;2218;51.408;7.208;2023-01-29T10:23:45;100872.22;;;17.89;29.05
4410;BME280;2218;51.408;7.208;2023-01-29T10:26:13;100868.69;;;17.90;29.44
4410;BME280;2218;51.408;7.208;2023-01-29T10:28:43;100877.41;;;17.91;29.06
4410;BME280;2218;51.408;7.208;2023-01-29T10:31:18;100875.63;;;17.91;29.30
4410;BME280;2218;51.408;7.208;2023-01-29T10:33:52;100865.97;;;17.92;29.64
4410;BME280;2218;51.408;7.208;2023-01-29T10:36:24;100865.97;;;17.92;29.45
4410;BME280;2218;51.408;7.208;2023-01-29T10:38:52;100858.94;;;17.92;29.36
4410;BME280;2218;51.408;7.208;2023-01-29T10:41:41;100853.66;;;17.92;29.10
4410;BME280;2218;51.408;7.208;2023-01-29T10:44:30;100855.44;;;17.92;29.25
4410;BME280;2218;51.408;7.208;2023-01-29T10:47:35;100852.75;;;17.93;29.21
4410;BME280;2218;51.408;7.208;2023-01-29T10:50:32;100853.59;;;17.94;29.19
4410;BME280;2218;51.408;7.208;2023-01-29T10:53:42;100847.41;;;17.95;28.77
4410;BME280;2218;51.408;7.208;2023-01-29T10:56:36;100829.88;;;17.95;29.12
4410;BME280;2218;51.408;7.208;2023-01-29T10:59:20;100837.75;;;17.95;29.19
4410;BME280;2218;51.408;7.208;2023-01-29T11:01:49;100830.72;;;17.96;29.28
4410;BME280;2218;51.408;7.208;2023-01-29T11:04:16;100827.16;;;17.97;28.77
4410;BME280;2218;51.408;7.208;2023-01-29T11:06:45;100822.84;;;17.96;29.10
4410;BME280;2218;51.408;7.208;2023-01-29T11:09:25;100816.63;;;17.97;29.05
4410;BME280;2218;51.408;7.208;2023-01-29T11:11:59;100816.63;;;17.97;29.48
4410;BME280;2218;51.408;7.208;2023-01-29T11:14:36;100809.59;;;17.97;29.02
4410;BME280;2218;51.408;7.208;2023-01-29T11:17:14;100806.97;;;17.97;29.10
4410;BME280;2218;51.408;7.208;2023-01-29T11:19:44;100804.25;;;17.99;29.25
4410;BME280;2218;51.408;7.208;2023-01-29T11:22:16;100796.44;;;17.97;29.47
4410;BME280;2218;51.408;7.208;2023-01-29T11:24:45;100806.97;;;17.97;28.84
4410;BME280;2218;51.408;7.208;2023-01-29T11:27:20;100800.78;;;17.98;29.18
4410;BME280;2218;51.408;7.208;2023-01-29T11:29:51;100796.38;;;17.99;29.09
4410;BME280;2218;51.408;7.208;2023-01-29T11:32:27;100795.50;;;17.98;28.91
4410;BME280;2218;51.408;7.208;2023-01-29T11:34:59;100788.47;;;17.99;29.13
4410;BME280;2218;51.408;7.208;2023-01-29T11:37:36;100789.31;;;17.99;29.09
4410;BME280;2218;51.408;7.208;2023-01-29T11:40:39;100775.31;;;17.99;29.02
4410;BME280;2218;51.408;7.208;2023-01-29T11:43:22;100777.97;;;17.99;29.23
4410;BME280;2218;51.408;7.208;2023-01-29T11:45:57;100775.28;;;18.00;29.01
4410;BME280;2218;51.408;7.208;2023-01-29T11:48:38;100768.28;;;17.99;28.63
4410;BME280;2218;51.408;7.208;2023-01-29T11:51:11;100763.88;;;18.00;28.82
4410;BME280;2218;51.408;7.208;2023-01-29T11:53:42;100758.59;;;18.00;28.96
4410;BME280;2218;51.408;7.208;2023-01-29T11:56:21;100744.63;;;17.99;28.99
4410;BME280;2218;51.408;7.208;2023-01-29T11:58:51;100737.56;;;18.00;29.14
4410;BME280;2218;51.408;7.208;2023-01-29T12:01:31;100730.56;;;18.00;28.82
4410;BME280;2218;51.408;7.208;2023-01-29T12:03:59;100729.69;;;18.00;29.02
4410;BME280;2218;51.408;7.208;2023-01-29T12:06:33;100718.25;;;18.01;29.28
4410;BME280;2218;51.408;7.208;2023-01-29T12:09:09;100718.25;;;18.01;28.99
4410;BME280;2218;51.408;7.208;2023-01-29T12:11:39;100718.25;;;18.01;28.96
4410;BME280;2218;51.408;7.208;2023-01-29T12:14:27;100709.44;;;18.02;28.99
4410;BME280;2218;51.408;7.208;2023-01-29T12:17:05;100704.16;;;18.02;28.86
4410;BME280;2218;51.408;7.208;2023-01-29T12:19:41;100696.28;;;18.02;29.03
4410;BME280;2218;51.408;7.208;2023-01-29T12:22:17;100681.44;;;18.01;28.91
4410;BME280;2218;51.408;7.208;2023-01-29T12:24:55;100677.88;;;18.02;28.97
4410;BME280;2218;51.408;7.208;2023-01-29T12:27:30;100667.34;;;18.02;28.76
4410;BME280;2218;51.408;7.208;2023-01-29T12:30:11;100659.47;;;18.02;28.87
4410;BME280;2218;51.408;7.208;2023-01-29T12:32:50;100650.72;;;18.01;28.72
4410;BME280;2218;51.408;7.208;2023-01-29T12:35:23;100637.47;;;18.03;28.80
4410;BME280;2218;51.408;7.208;2023-01-29T12:37:58;100628.81;;;18.01;28.99
4410;BME280;2218;51.408;7.208;2023-01-29T12:40:37;100631.38;;;18.02;28.91
4410;BME280;2218;51.408;7.208;2023-01-29T12:43:14;100627.88;;;18.02;28.97
4410;BME280;2218;51.408;7.208;2023-01-29T12:45:43;100621.69;;;18.03;28.97
4410;BME280;2218;51.408;7.208;2023-01-29T12:48:18;100612.97;;;18.02;28.98
4410;BME280;2218;51.408;7.208;2023-01-29T12:50:48;100607.63;;;18.04;28.89
4410;BME280;2218;51.408;7.208;2023-01-29T12:53:25;100598.97;;;18.02;28.99
4410;BME280;2218;51.408;7.208;2023-01-29T12:56:01;100605.91;;;18.03;28.74
4410;BME280;2218;51.408;7.208;2023-01-29T12:58:35;100607.63;;;18.04;28.94
4410;BME280;2218;51.408;7.208;2023-01-29T13:01:11;100595.41;;;18.03;28.95
4410;BME280;2218;51.408;7.208;2023-01-29T13:03:49;100600.66;;;18.03;28.90
4410;BME280;2218;51.408;7.208;2023-01-29T13:06:25;100603.28;;;18.03;28.84
4410;BME280;2218;51.408;7.208;2023-01-29T13:08:57;100599.81;;;18.02;29.08
4410;BME280;2218;51.408;7.208;2023-01-29T13:11:35;100595.41;;;18.03;29.00
4410;BME280;2218;51.408;7.208;2023-01-29T13:14:08;100590.13;;;18.03;28.89
4410;BME280;2218;51.408;7.208;2023-01-29T13:16:44;100596.25;;;18.03;28.90
4410;BME280;2218;51.408;7.208;2023-01-29T13:19:21;100593.69;;;18.02;28.63
4410;BME280;2218;51.408;7.208;2023-01-29T13:21:53;100590.13;;;18.03;28.81
4410;BME280;2218;51.408;7.208;2023-01-29T13:24:24;100596.25;;;18.03;28.80
4410;BME280;2218;51.408;7.208;2023-01-29T13:26:55;100600.66;;;18.03;28.84
4410;BME280;2218;51.408;7.208;2023-01-29T13:29:24;100600.66;;;18.03;28.90
4410;BME280;2218;51.408;7.208;2023-01-29T13:31:54;100600.66;;;18.03;28.94
4410;BME280;2218;51.408;7.208;2023-01-29T13:34:24;100607.63;;;18.04;29.05
4410;BME280;2218;51.408;7.208;2023-01-29T13:36:57;100605.91;;;18.03;28.98
4410;BME280;2218;51.408;7.208;2023-01-29T13:39:29;100594.53;;;18.02;28.92
4410;BME280;2218;51.408;7.208;2023-01-29T13:42:00;100600.66;;;18.03;29.00
4410;BME280;2218;51.408;7.208;2023-01-29T13:44:35;100604.97;;;18.04;28.77
4410;BME280;2218;51.408;7.208;2023-01-29T13:47:06;100605.06;;;18.02;29.24
4410;BME280;2218;51.408;7.208;2023-01-29T13:49:38;100605.91;;;18.03;28.94
4410;BME280;2218;51.408;7.208;2023-01-29T13:52:25;100600.66;;;18.03;28.95
4410;BME280;2218;51.408;7.208;2023-01-29T13:54:57;100600.66;;;18.03;28.88
4410;BME280;2218;51.408;7.208;2023-01-29T13:57:51;100605.91;;;18.03;29.19
4410;BME280;2218;51.408;7.208;2023-01-29T14:00:48;100607.63;;;18.04;28.80
4410;BME280;2218;51.408;7.208;2023-01-29T14:03:44;100603.28;;;18.03;29.22
4410;BME280;2218;51.408;7.208;2023-01-29T14:06:53;100600.66;;;18.03;29.12
4410;BME280;2218;51.408;7.208;2023-01-29T14:10:00;100600.66;;;18.03;29.11
4410;BME280;2218;51.408;7.208;2023-01-29T14:12:42;100590.13;;;18.03;28.74
4410;BME280;2218;51.408;7.208;2023-01-29T14:15:25;100574.34;;;18.03;28.99
4410;BME280;2218;51.408;7.208;2023-01-29T14:18:18;100571.72;;;18.03;28.97
4410;BME280;2218;51.408;7.208;2023-01-29T14:21:01;100568.25;;;18.02;28.93
4410;BME280;2218;51.408;7.208;2023-01-29T14:23:36;100569.09;;;18.03;29.47
4410;BME280;2218;51.408;7.208;2023-01-29T14:26:21;100575.19;;;18.03;28.94
4410;BME280;2218;51.408;7.208;2023-01-29T14:28:59;100576.13;;;18.02;28.98
4410;BME280;2218;51.408;7.208;2023-01-29T14:31:31;100579.63;;;18.03;29.31
4410;BME280;2218;51.408;7.208;2023-01-29T14:34:05;100581.31;;;18.04;29.06
4410;BME280;2218;51.408;7.208;2023-01-29T14:36:41;100573.50;;;18.02;28.88
4410;BME280;2218;51.408;7.208;2023-01-29T14:39:24;100576.03;;;18.04;29.08
4410;BME280;2218;51.408;7.208;2023-01-29T14:41:54;100575.19;;;18.03;28.64
4410;BME280;2218;51.408;7.208;2023-01-29T14:44:58;100573.50;;;18.02;28.63
4410;BME280;2218;51.408;7.208;2023-01-29T14:47:55;100563.84;;;18.03;28.90
4410;BME280;2218;51.408;7.208;2023-01-29T14:51:05;100574.34;;;18.03;28.78
4410;BME280;2218;51.408;7.208;2023-01-29T14:53:51;100569.09;;;18.03;28.80
4410;BME280;2218;51.408;7.208;2023-01-29T14:56:28;100563.84;;;18.03;28.91
4410;BME280;2218;51.408;7.208;2023-01-29T14:59:12;100559.50;;;18.02;28.88
4410;BME280;2218;51.408;7.208;2023-01-29T15:01:48;100557.72;;;18.02;29.11
4410;BME280;2218;51.408;7.208;2023-01-29T15:04:21;100558.56;;;18.03;28.86
4410;BME280;2218;51.408;7.208;2023-01-29T15:06:58;100551.63;;;18.02;28.87